createdAt,value
2022-11-16T00:04:20.241Z,82.00
2022-11-16T00:14:29.492Z,83.20
2022-11-16T00:24:36.768Z,106.80
2022-11-16T00:34:44.093Z,91.80
2022-11-16T00:44:49.962Z,84.70
2022-11-16T00:54:57.306Z,83.80
2022-11-16T01:05:04.767Z,76.10
2022-11-16T01:15:13.195Z,78.90
2022-11-16T01:25:20.885Z,77.70
2022-11-16T01:35:28.424Z,81.10
2022-11-16T01:45:37.084Z,81.50
2022-11-16T01:55:46.514Z,80.20
2022-11-16T02:06:03.535Z,77.30
2022-11-16T02:16:10.470Z,72.10
2022-11-16T02:26:23.366Z,73.30
2022-11-16T02:36:31.034Z,76.10
2022-11-16T02:46:35.976Z,66.20
2022-11-16T02:56:44.531Z,63.80
2022-11-16T03:06:55.153Z,56.90
2022-11-16T03:17:04.803Z,54.40
2022-11-16T03:37:23.326Z,50.50
2022-11-16T03:47:31.274Z,52.80
2022-11-16T03:57:38.502Z,54.10
2022-11-16T04:08:04.131Z,47.70
2022-11-16T04:18:27.683Z,40.50
2022-11-16T04:28:37.571Z,41.70
2022-11-16T04:38:45.079Z,37.20
2022-11-16T04:48:52.548Z,36.00
2022-11-16T04:58:59.717Z,34.90
2022-11-16T05:09:06.673Z,35.80
2022-11-16T05:19:32.001Z,31.90
2022-11-16T05:29:39.337Z,33.10
2022-11-16T05:39:46.670Z,31.80
2022-11-16T05:49:54.039Z,30.60
2022-11-16T06:00:01.138Z,26.00
2022-11-16T06:10:09.373Z,27.30
2022-11-16T06:20:16.702Z,25.70
2022-11-16T06:30:23.989Z,25.60
2022-11-16T06:40:31.120Z,20.70
2022-11-16T06:50:38.201Z,17.70
2022-11-16T07:00:45.567Z,13.50
2022-11-16T07:10:52.601Z,12.30
2022-11-16T07:20:59.758Z,11.00
2022-11-16T07:31:07.071Z,10.20
2022-11-16T07:41:16.828Z,10.10
2022-11-16T07:51:24.353Z,10.60
2022-11-16T08:01:31.456Z,10.40
2022-11-16T08:11:37.962Z,8.80
2022-11-16T08:21:45.086Z,9.00
2022-11-16T08:31:52.375Z,8.20
2022-11-16T08:41:59.855Z,8.70
2022-11-16T08:52:06.255Z,8.00
2022-11-16T09:02:12.416Z,8.30
2022-11-16T09:12:20.166Z,7.90
2022-11-16T09:22:27.604Z,8.70
2022-11-16T09:32:34.706Z,7.30
2022-11-16T09:42:42.423Z,9.50
2022-11-16T09:52:52.837Z,10.80
2022-11-16T10:02:59.709Z,10.00
2022-11-16T10:13:05.287Z,13.60
2022-11-16T10:23:17.772Z,14.40
2022-11-16T10:33:28.081Z,10.60
2022-11-16T10:43:34.902Z,11.10
2022-11-16T10:53:44.555Z,9.70
2022-11-16T11:03:52.216Z,8.80
2022-11-16T11:14:04.195Z,8.80
2022-11-16T11:24:43.258Z,8.70
2022-11-16T11:34:47.412Z,7.40
2022-11-16T11:44:57.430Z,7.00
2022-11-16T11:55:04.223Z,6.10
2022-11-16T12:05:24.695Z,8.80
2022-11-16T12:15:59.809Z,5.00
2022-11-16T12:26:09.147Z,5.30
2022-11-16T12:36:16.189Z,6.00
2022-11-16T12:46:25.281Z,5.30
2022-11-16T12:56:32.775Z,3.90
2022-11-16T13:16:45.138Z,4.60
2022-11-16T13:26:55.995Z,5.00
2022-11-16T13:37:03.113Z,4.30
2022-11-16T13:47:24.894Z,6.50
2022-11-16T13:57:35.133Z,5.70
2022-11-16T14:07:39.571Z,5.50
2022-11-16T14:17:51.494Z,5.40
2022-11-16T14:28:03.313Z,14.80
2022-11-16T14:38:23.080Z,7.60
2022-11-16T14:48:31.486Z,5.60
2022-11-16T14:58:39.170Z,3.70
2022-11-16T15:08:46.874Z,4.30
2022-11-16T15:18:59.073Z,5.40
2022-11-16T15:29:06.201Z,6.60
2022-11-16T15:39:11.707Z,5.70
2022-11-16T15:49:20.308Z,5.90
2022-11-16T15:59:26.975Z,5.20
2022-11-16T16:09:36.984Z,6.30
2022-11-16T16:19:46.549Z,4.40
2022-11-16T16:29:54.529Z,3.80
2022-11-16T16:40:01.077Z,2.80
2022-11-16T16:50:05.830Z,4.70
2022-11-16T17:00:15.001Z,4.30
2022-11-16T17:10:19.684Z,5.00
2022-11-16T17:20:26.935Z,5.70
2022-11-16T17:40:38.032Z,4.80
2022-11-16T17:50:48.575Z,3.20
2022-11-16T18:00:56.936Z,2.50
2022-11-16T18:11:05.513Z,3.90
2022-11-16T18:21:20.114Z,4.70
2022-11-16T18:31:29.938Z,5.10
2022-11-16T18:51:42.401Z,5.40
2022-11-16T19:01:49.486Z,3.30
2022-11-16T19:11:56.679Z,2.70
2022-11-16T19:22:04.271Z,2.70
2022-11-16T19:32:11.412Z,3.00
2022-11-16T19:42:17.640Z,2.90
2022-11-16T19:52:24.925Z,2.40
2022-11-16T20:02:32.101Z,3.30
2022-11-16T20:12:39.372Z,3.90
2022-11-16T20:22:48.150Z,5.00
2022-11-16T20:32:57.192Z,2.60
2022-11-16T20:53:09.702Z,4.10
2022-11-16T21:03:17.403Z,4.20
2022-11-16T21:13:42.598Z,4.90
2022-11-16T21:23:51.611Z,4.20
2022-11-16T21:34:00.681Z,5.40
2022-11-16T21:44:06.747Z,3.60
2022-11-16T21:54:14.004Z,4.40
2022-11-16T22:04:38.830Z,5.30
2022-11-16T22:14:45.008Z,5.10
2022-11-16T22:24:53.434Z,4.00
2022-11-16T22:35:00.829Z,3.70
2022-11-16T22:45:07.369Z,3.40
2022-11-16T22:55:14.403Z,4.90
2022-11-16T23:05:22.196Z,4.60
2022-11-16T23:15:47.089Z,4.40
2022-11-16T23:26:11.999Z,4.90
2022-11-16T23:36:19.168Z,7.10
2022-11-16T23:46:26.485Z,5.40
2022-11-16T23:56:33.714Z,5.10
